Time;durP1;ratioP1;P1;durP2;ratioP2;P2;SDS_P1;SDS_P2;PMS_P1;PMS_P2;Temp;Humidity;BMP_temperature;BMP_pressure;BME280_temperature;BME280_humidity;BME280_pressure;Samples;Min_cycle;Max_cycle;Signal;HPM_P1;HPM_P2
2021/07/25 00:02:07;;;;;;;8.70;7.90;;;;;;;;;;4981544;28;20210;-82
2021/07/25 00:04:34;;;;;;;8.65;7.85;;;;;;;;;;4981554;28;20190;-83
2021/07/25 00:07:02;;;;;;;7.85;7.05;;;;;;;;;;4981952;28;20209;-83
2021/07/25 00:09:28;;;;;;;8.05;7.28;;;;;;;;;;4999420;28;20218;-82
2021/07/25 00:11:55;;;;;;;9.23;8.30;;;;;;;;;;4981159;28;20205;-82
2021/07/25 00:14:22;;;;;;;9.50;8.60;;;;;;;;;;4999161;28;20236;-83
2021/07/25 00:16:48;;;;;;;10.18;9.07;;;;;;;;;;4981880;28;20282;-82
2021/07/25 00:19:15;;;;;;;9.02;8.13;;;;;;;;;;5000099;28;20220;-82
2021/07/25 00:21:42;;;;;;;8.90;8.10;;;;;;;;;;4983511;28;20198;-82
2021/07/25 00:24:10;;;;;;;9.23;8.27;;;;;;;;;;4983752;28;20239;-82
2021/07/25 00:26:45;;;;;;;10.90;8.68;;;;;;;;;;4981749;28;20264;-82
2021/07/25 00:29:12;;;;;;;8.82;7.93;;;;;;;;;;4983891;28;20206;-82
2021/07/25 00:31:38;;;;;;;9.55;8.07;;;;;;;;;;5001029;28;20220;-82
2021/07/25 00:34:05;;;;;;;9.48;8.60;;;;;;;;;;5000673;28;20236;-82
2021/07/25 00:36:32;;;;;;;9.38;8.40;;;;;;;;;;4984471;28;20206;-82
2021/07/25 00:38:59;;;;;;;10.20;8.40;;;;;;;;;;4986760;28;20190;-82
2021/07/25 00:41:27;;;;;;;9.88;8.88;;;;;;;;;;4987122;28;20229;-82
2021/07/25 00:43:53;;;;;;;9.55;8.65;;;;;;;;;;5006151;28;20649;-82
2021/07/25 00:46:20;;;;;;;8.82;7.93;;;;;;;;;;4988552;28;20213;-83
2021/07/25 00:48:47;;;;;;;10.07;8.23;;;;;;;;;;5002658;28;20730;-82
2021/07/25 00:51:14;;;;;;;9.35;8.23;;;;;;;;;;5000880;28;20237;-82
2021/07/25 00:53:42;;;;;;;8.85;7.97;;;;;;;;;;4986325;28;20216;-82
2021/07/25 00:56:09;;;;;;;8.55;7.75;;;;;;;;;;4988271;28;20222;-82
2021/07/25 00:58:38;;;;;;;8.90;8.10;;;;;;;;;;5004915;28;20646;-82
2021/07/25 01:01:05;;;;;;;8.57;7.78;;;;;;;;;;4986133;28;20264;-83
2021/07/25 01:03:40;;;;;;;9.68;8.00;;;;;;;;;;4986143;28;20607;-81
2021/07/25 01:06:12;;;;;;;10.18;8.50;;;;;;;;;;5002621;28;20538;-83
2021/07/25 01:08:41;;;;;;;10.32;8.80;;;;;;;;;;5003120;28;20220;-82
2021/07/25 01:11:08;;;;;;;8.63;7.88;;;;;;;;;;4985953;28;20197;-82
2021/07/25 01:13:37;;;;;;;11.18;8.73;;;;;;;;;;5003867;28;20178;-83
2021/07/25 01:16:06;;;;;;;8.35;7.50;;;;;;;;;;4983095;28;20210;-83
2021/07/25 01:18:33;;;;;;;8.48;7.78;;;;;;;;;;4981928;28;20256;-82
2021/07/25 01:21:01;;;;;;;8.77;7.90;;;;;;;;;;4981607;28;20213;-83
2021/07/25 01:23:28;;;;;;;9.57;7.43;;;;;;;;;;4981114;28;20198;-82
2021/07/25 01:25:58;;;;;;;9.52;8.55;;;;;;;;;;5001081;28;20214;-81
2021/07/25 01:28:26;;;;;;;8.93;8.05;;;;;;;;;;5001729;28;20255;-83
2021/07/25 01:30:54;;;;;;;9.50;8.25;;;;;;;;;;4982606;28;20210;-82
2021/07/25 01:33:24;;;;;;;8.05;7.38;;;;;;;;;;4998962;28;20224;-82
2021/07/25 01:35:51;;;;;;;8.05;7.25;;;;;;;;;;4999604;28;20201;-82
2021/07/25 01:38:19;;;;;;;8.18;7.30;;;;;;;;;;4999730;28;20218;-82
2021/07/25 01:41:00;;;;;;;8.82;7.82;;;;;;;;;;4998589;28;20189;-82
2021/07/25 01:43:27;;;;;;;9.60;8.52;;;;;;;;;;4997186;28;20622;-83
2021/07/25 01:45:54;;;;;;;8.40;7.55;;;;;;;;;;4997942;28;20657;-83
2021/07/25 01:48:20;;;;;;;13.63;8.13;;;;;;;;;;4998461;28;20244;-83
2021/07/25 01:50:47;;;;;;;9.32;8.45;;;;;;;;;;4997159;28;20252;-82
2021/07/25 01:53:15;;;;;;;8.45;7.65;;;;;;;;;;4996181;28;20209;-83
2021/07/25 01:55:43;;;;;;;8.65;7.80;;;;;;;;;;4979217;28;20213;-82
2021/07/25 01:58:10;;;;;;;11.05;8.43;;;;;;;;;;4980344;28;20253;-83
2021/07/25 02:00:37;;;;;;;7.80;7.03;;;;;;;;;;4998809;28;20221;-83
2021/07/25 02:03:04;;;;;;;9.55;8.52;;;;;;;;;;4981414;28;20232;-83
2021/07/25 02:05:31;;;;;;;9.00;8.10;;;;;;;;;;4999792;28;20573;-83
2021/07/25 02:07:57;;;;;;;9.50;7.80;;;;;;;;;;4998976;28;20186;-83
2021/07/25 02:10:24;;;;;;;9.55;8.25;;;;;;;;;;4979723;28;20532;-83
2021/07/25 02:12:52;;;;;;;9.93;7.80;;;;;;;;;;4997849;28;20190;-83
2021/07/25 02:15:18;;;;;;;8.73;7.93;;;;;;;;;;4995604;28;20658;-83
2021/07/25 02:17:45;;;;;;;12.13;7.70;;;;;;;;;;4998484;28;20709;-83
2021/07/25 02:20:12;;;;;;;8.95;7.50;;;;;;;;;;4979293;28;20538;-83
2021/07/25 02:22:39;;;;;;;8.65;7.75;;;;;;;;;;4996272;28;20228;-83
2021/07/25 02:25:06;;;;;;;12.13;7.85;;;;;;;;;;4995832;28;20213;-83
2021/07/25 02:27:33;;;;;;;8.77;7.70;;;;;;;;;;4978493;28;20542;-83
2021/07/25 02:30:01;;;;;;;13.68;7.30;;;;;;;;;;4995302;28;20578;-83
2021/07/25 02:32:27;;;;;;;8.02;7.32;;;;;;;;;;4996408;28;20667;-83
2021/07/25 02:34:54;;;;;;;8.75;6.95;;;;;;;;;;4994903;28;20662;-83
2021/07/25 02:37:21;;;;;;;9.40;7.75;;;;;;;;;;4993610;28;20661;-83
2021/07/25 02:39:47;;;;;;;7.25;6.63;;;;;;;;;;4994653;28;20205;-83
2021/07/25 02:42:14;;;;;;;8.30;7.10;;;;;;;;;;4982193;28;20190;-83
2021/07/25 02:44:41;;;;;;;8.90;7.07;;;;;;;;;;4998160;28;20221;-83
2021/07/25 02:47:10;;;;;;;7.97;7.28;;;;;;;;;;4975300;28;20683;-83
2021/07/25 02:49:36;;;;;;;7.93;7.20;;;;;;;;;;4959776;28;20655;-83
2021/07/25 02:52:03;;;;;;;8.85;7.60;;;;;;;;;;4979986;28;20222;-83
2021/07/25 02:54:30;;;;;;;7.75;7.05;;;;;;;;;;4980616;28;20670;-83
2021/07/25 02:56:57;;;;;;;7.32;6.65;;;;;;;;;;4961768;28;20218;-84
2021/07/25 02:59:24;;;;;;;7.75;6.70;;;;;;;;;;4964120;28;20194;-83
2021/07/25 03:01:50;;;;;;;6.55;5.72;;;;;;;;;;4961714;28;20214;-83
2021/07/25 03:04:18;;;;;;;7.50;6.03;;;;;;;;;;4964757;28;20206;-84
2021/07/25 03:06:45;;;;;;;6.63;5.90;;;;;;;;;;4980699;28;20207;-82
2021/07/25 03:09:11;;;;;;;6.05;5.50;;;;;;;;;;4982295;28;20198;-83
2021/07/25 03:11:39;;;;;;;6.20;5.60;;;;;;;;;;4961378;28;20202;-82
2021/07/25 03:14:06;;;;;;;6.50;5.47;;;;;;;;;;4979364;28;20223;-83
2021/07/25 03:16:32;;;;;;;5.82;5.32;;;;;;;;;;4982437;28;20226;-83
2021/07/25 03:18:59;;;;;;;5.80;5.30;;;;;;;;;;4965017;28;20203;-83
2021/07/25 03:21:27;;;;;;;6.25;5.75;;;;;;;;;;4980242;28;20187;-83
2021/07/25 03:23:54;;;;;;;5.53;5.03;;;;;;;;;;4980335;28;20183;-83
2021/07/25 03:26:20;;;;;;;6.45;5.20;;;;;;;;;;4980197;28;20234;-82
2021/07/25 03:28:47;;;;;;;5.65;5.05;;;;;;;;;;4963013;28;20241;-83
2021/07/25 03:31:14;;;;;;;5.82;5.05;;;;;;;;;;4979066;28;20674;-82
2021/07/25 03:33:40;;;;;;;5.40;4.90;;;;;;;;;;4977935;28;20737;-83
2021/07/25 03:36:07;;;;;;;5.25;4.85;;;;;;;;;;4960338;28;20619;-83
2021/07/25 03:38:35;;;;;;;6.45;4.88;;;;;;;;;;4962103;28;20206;-82
2021/07/25 03:41:02;;;;;;;7.10;5.43;;;;;;;;;;4979228;28;20663;-83
2021/07/25 03:43:29;;;;;;;6.93;5.65;;;;;;;;;;4959862;28;20210;-84
2021/07/25 03:45:56;;;;;;;6.65;5.32;;;;;;;;;;4960285;28;20207;-85
2021/07/25 03:48:23;;;;;;;5.18;4.70;;;;;;;;;;4990717;28;20260;-84
2021/07/25 03:50:50;;;;;;;6.23;4.87;;;;;;;;;;4978965;28;20233;-83
2021/07/25 03:53:17;;;;;;;5.03;4.68;;;;;;;;;;4996637;28;20646;-83
2021/07/25 03:55:45;;;;;;;4.87;4.43;;;;;;;;;;4995454;28;20249;-83
2021/07/25 03:58:12;;;;;;;7.05;4.78;;;;;;;;;;4995158;28;20256;-83
2021/07/25 04:00:39;;;;;;;6.60;5.00;;;;;;;;;;4977799;28;20253;-82
2021/07/25 04:03:06;;;;;;;5.18;4.25;;;;;;;;;;4977255;28;20233;-83
2021/07/25 04:05:33;;;;;;;7.75;4.53;;;;;;;;;;4977451;28;20197;-83
2021/07/25 04:08:06;;;;;;;5.00;4.55;;;;;;;;;;4994532;28;20213;-83
2021/07/25 04:10:32;;;;;;;4.93;4.47;;;;;;;;;;4977374;28;20256;-82
2021/07/25 04:13:01;;;;;;;5.17;4.67;;;;;;;;;;4977208;28;20206;-82
2021/07/25 04:15:28;;;;;;;5.75;4.50;;;;;;;;;;4993178;28;20237;-82
2021/07/25 04:17:54;;;;;;;8.82;4.88;;;;;;;;;;4976747;28;20281;-83
2021/07/25 04:20:21;;;;;;;5.90;4.53;;;;;;;;;;4977033;28;20201;-82
2021/07/25 04:22:48;;;;;;;4.67;4.20;;;;;;;;;;4993362;28;20228;-82
2021/07/25 04:25:14;;;;;;;5.90;4.63;;;;;;;;;;4993084;28;20764;-82
2021/07/25 04:27:41;;;;;;;7.33;4.60;;;;;;;;;;4992851;28;20581;-82
2021/07/25 04:30:10;;;;;;;8.97;4.80;;;;;;;;;;4977124;28;20538;-82
2021/07/25 04:32:37;;;;;;;4.95;4.55;;;;;;;;;;4994214;28;20684;-82
2021/07/25 04:35:04;;;;;;;5.75;4.82;;;;;;;;;;4993982;28;20248;-82
2021/07/25 04:37:31;;;;;;;6.83;4.80;;;;;;;;;;4976334;28;20245;-82
2021/07/25 04:39:58;;;;;;;7.70;5.40;;;;;;;;;;4994093;28;20235;-82
2021/07/25 04:42:26;;;;;;;6.50;5.00;;;;;;;;;;4992176;28;20613;-82
2021/07/25 04:44:54;;;;;;;4.77;4.47;;;;;;;;;;4976330;28;20232;-82
2021/07/25 04:47:25;;;;;;;5.53;5.13;;;;;;;;;;4940019;28;1064194;-82
2021/07/25 04:49:57;;;;;;;6.97;5.40;;;;;;;;;;4977444;28;20256;-82
2021/07/25 04:52:25;;;;;;;7.77;5.43;;;;;;;;;;4995112;28;20209;-83
2021/07/25 04:54:55;;;;;;;8.13;6.20;;;;;;;;;;4977476;28;20685;-82
2021/07/25 04:57:25;;;;;;;8.57;5.43;;;;;;;;;;4994802;28;20233;-82
2021/07/25 04:59:54;;;;;;;5.80;5.30;;;;;;;;;;4994490;28;20248;-83
2021/07/25 05:02:25;;;;;;;6.63;5.90;;;;;;;;;;4977563;28;20720;-82
2021/07/25 05:04:52;;;;;;;8.30;6.40;;;;;;;;;;4993043;28;20259;-82
2021/07/25 05:07:18;;;;;;;6.95;6.25;;;;;;;;;;4977318;28;20221;-82
2021/07/25 05:09:45;;;;;;;9.13;6.00;;;;;;;;;;4994415;28;20237;-82
2021/07/25 05:12:14;;;;;;;8.63;6.37;;;;;;;;;;4994434;28;20689;-83
2021/07/25 05:14:44;;;;;;;6.90;6.27;;;;;;;;;;4976721;28;20209;-83
2021/07/25 05:17:12;;;;;;;7.17;6.50;;;;;;;;;;4993967;28;20233;-82
2021/07/25 05:19:49;;;;;;;8.00;5.77;;;;;;;;;;4994164;28;20241;-82
2021/07/25 05:22:22;;;;;;;6.73;5.80;;;;;;;;;;4976955;28;20604;-82
2021/07/25 05:24:50;;;;;;;8.70;6.10;;;;;;;;;;4976782;28;20264;-83
2021/07/25 05:27:19;;;;;;;6.30;5.80;;;;;;;;;;4994321;28;20752;-82
2021/07/25 05:29:46;;;;;;;9.80;6.35;;;;;;;;;;4977068;28;20613;-82
2021/07/25 05:32:12;;;;;;;6.07;5.68;;;;;;;;;;4994306;28;20213;-82
2021/07/25 05:34:39;;;;;;;6.00;5.50;;;;;;;;;;4976862;28;20189;-82
2021/07/25 05:37:07;;;;;;;9.60;5.72;;;;;;;;;;4994007;28;20248;-83
2021/07/25 05:39:34;;;;;;;9.90;5.80;;;;;;;;;;4993667;28;20253;-82
2021/07/25 05:42:00;;;;;;;6.05;5.47;;;;;;;;;;4993640;28;20245;-82
2021/07/25 05:44:27;;;;;;;5.85;5.20;;;;;;;;;;4994379;28;20554;-82
2021/07/25 05:46:53;;;;;;;7.03;5.60;;;;;;;;;;4992012;28;20542;-83
2021/07/25 05:49:20;;;;;;;6.90;5.40;;;;;;;;;;4992843;28;20206;-84
2021/07/25 05:51:48;;;;;;;5.45;5.05;;;;;;;;;;4992557;28;20226;-82
2021/07/25 05:54:15;;;;;;;5.53;5.05;;;;;;;;;;4976170;28;20589;-84
2021/07/25 05:56:42;;;;;;;6.93;5.47;;;;;;;;;;4994810;28;20237;-84
2021/07/25 05:59:10;;;;;;;5.90;5.30;;;;;;;;;;4977195;28;20222;-83
2021/07/25 06:01:37;;;;;;;5.85;5.35;;;;;;;;;;4976221;28;20201;-85
2021/07/25 06:04:04;;;;;;;5.57;5.07;;;;;;;;;;4993062;28;20561;-81
2021/07/25 06:06:31;;;;;;;6.28;5.68;;;;;;;;;;4994006;28;20180;-82
2021/07/25 06:08:57;;;;;;;5.75;5.25;;;;;;;;;;4976429;28;20232;-83
2021/07/25 06:11:25;;;;;;;5.47;5.07;;;;;;;;;;4976958;28;20209;-83
2021/07/25 06:13:53;;;;;;;7.43;5.32;;;;;;;;;;4977115;28;20209;-82
2021/07/25 06:16:20;;;;;;;7.00;5.28;;;;;;;;;;4994262;28;20217;-82
2021/07/25 06:18:48;;;;;;;8.63;4.97;;;;;;;;;;4976462;28;20201;-82
2021/07/25 06:21:15;;;;;;;6.07;5.10;;;;;;;;;;4993601;28;20832;-82
2021/07/25 06:23:41;;;;;;;5.78;4.90;;;;;;;;;;4993518;28;20236;-82
2021/07/25 06:26:08;;;;;;;4.70;4.30;;;;;;;;;;4992022;28;20723;-82
2021/07/25 06:28:36;;;;;;;6.00;4.70;;;;;;;;;;4993769;28;20248;-81
2021/07/25 06:31:03;;;;;;;5.07;4.68;;;;;;;;;;4993679;28;20218;-83
2021/07/25 06:33:30;;;;;;;5.60;5.10;;;;;;;;;;4991828;28;20259;-84
2021/07/25 06:35:56;;;;;;;5.63;5.13;;;;;;;;;;4976088;28;20214;-83
2021/07/25 06:38:23;;;;;;;4.88;4.50;;;;;;;;;;4993618;28;20241;-83
2021/07/25 06:40:51;;;;;;;6.35;4.65;;;;;;;;;;4975842;28;20236;-84
2021/07/25 06:43:18;;;;;;;4.30;3.97;;;;;;;;;;4976093;28;20216;-85
2021/07/25 06:45:46;;;;;;;8.45;4.70;;;;;;;;;;4993111;28;20541;-85
2021/07/25 06:48:19;;;;;;;5.30;4.80;;;;;;;;;;4992801;28;20701;-85
2021/07/25 06:50:47;;;;;;;5.25;4.75;;;;;;;;;;4976104;28;20276;-84
2021/07/25 06:53:13;;;;;;;7.47;5.13;;;;;;;;;;4992947;28;20246;-84
2021/07/25 06:55:40;;;;;;;5.07;4.57;;;;;;;;;;4993185;28;20214;-83
2021/07/25 06:58:07;;;;;;;5.47;4.70;;;;;;;;;;4975585;28;20256;-83
2021/07/25 07:00:34;;;;;;;5.30;4.80;;;;;;;;;;4975797;28;20766;-84
2021/07/25 07:03:02;;;;;;;5.40;4.90;;;;;;;;;;4992772;28;20183;-83
2021/07/25 07:05:32;;;;;;;7.35;4.78;;;;;;;;;;4992446;28;20248;-82
2021/07/25 07:08:00;;;;;;;5.43;4.90;;;;;;;;;;4975093;28;20225;-84
2021/07/25 07:10:27;;;;;;;5.60;5.10;;;;;;;;;;4993344;28;20245;-84
2021/07/25 07:12:55;;;;;;;6.68;4.82;;;;;;;;;;4976395;28;20237;-84
2021/07/25 07:15:22;;;;;;;5.60;5.10;;;;;;;;;;4993704;28;20221;-85
2021/07/25 07:17:49;;;;;;;5.85;5.00;;;;;;;;;;4993146;28;20246;-84
2021/07/25 07:20:18;;;;;;;5.20;4.75;;;;;;;;;;4993694;28;20556;-86
2021/07/25 07:22:51;;;;;;;5.50;4.88;;;;;;;;;;4993804;28;20576;-85
2021/07/25 07:25:17;;;;;;;5.07;4.55;;;;;;;;;;4976278;28;20202;-85
2021/07/25 07:27:44;;;;;;;5.53;5.00;;;;;;;;;;4975999;28;20202;-86
2021/07/25 07:30:11;;;;;;;6.80;4.43;;;;;;;;;;4994175;28;20186;-85
2021/07/25 07:32:37;;;;;;;4.47;4.07;;;;;;;;;;4993718;28;20210;-86
2021/07/25 07:35:04;;;;;;;5.10;4.65;;;;;;;;;;5002835;28;20605;-86
2021/07/25 07:37:32;;;;;;;5.30;4.90;;;;;;;;;;4993136;28;20245;-85
2021/07/25 07:39:59;;;;;;;5.55;5.05;;;;;;;;;;5000349;28;20250;-85
2021/07/25 07:42:25;;;;;;;5.60;5.07;;;;;;;;;;5010705;28;20205;-84
2021/07/25 07:44:52;;;;;;;5.10;4.70;;;;;;;;;;4987276;28;20224;-84
2021/07/25 07:47:19;;;;;;;5.10;4.60;;;;;;;;;;4995170;28;20222;-85
2021/07/25 07:49:46;;;;;;;4.97;4.50;;;;;;;;;;5007827;28;20251;-84
2021/07/25 07:52:12;;;;;;;5.38;4.40;;;;;;;;;;4996273;28;20757;-84
2021/07/25 07:54:40;;;;;;;5.28;4.78;;;;;;;;;;4996232;28;20237;-84
2021/07/25 07:57:07;;;;;;;5.07;4.68;;;;;;;;;;4986674;28;20662;-84
2021/07/25 07:59:34;;;;;;;4.60;4.30;;;;;;;;;;5015770;28;20241;-86
2021/07/25 08:02:01;;;;;;;4.78;4.35;;;;;;;;;;5016531;28;20220;-89
2021/07/25 08:04:27;;;;;;;4.93;4.50;;;;;;;;;;5017494;28;20190;-87
2021/07/25 08:06:54;;;;;;;6.47;4.80;;;;;;;;;;5015018;28;20248;-86
2021/07/25 08:09:20;;;;;;;5.72;3.88;;;;;;;;;;5013755;28;20201;-87
2021/07/25 08:11:48;;;;;;;7.07;4.25;;;;;;;;;;4997345;28;20220;-87
2021/07/25 08:14:16;;;;;;;4.45;4.15;;;;;;;;;;5014685;28;20598;-89
2021/07/25 08:16:43;;;;;;;4.78;4.20;;;;;;;;;;5014903;28;20208;-88
2021/07/25 08:19:10;;;;;;;4.30;4.00;;;;;;;;;;5013321;28;20244;-87
2021/07/25 08:21:39;;;;;;;5.07;4.68;;;;;;;;;;5014801;28;20334;-89
2021/07/25 08:24:06;;;;;;;4.75;4.35;;;;;;;;;;5012721;28;20237;-87
2021/07/25 08:26:33;;;;;;;5.20;4.70;;;;;;;;;;4996845;28;20256;-88
2021/07/25 08:29:01;;;;;;;5.38;4.00;;;;;;;;;;4997258;28;20225;-86
2021/07/25 08:31:28;;;;;;;4.43;4.13;;;;;;;;;;4997041;28;20243;-88
2021/07/25 08:33:54;;;;;;;4.40;4.00;;;;;;;;;;4997756;28;20263;-86
2021/07/25 08:36:22;;;;;;;3.83;3.53;;;;;;;;;;5015055;28;20244;-84
2021/07/25 08:38:49;;;;;;;4.22;3.92;;;;;;;;;;5013442;28;20281;-84
2021/07/25 08:41:17;;;;;;;5.10;3.72;;;;;;;;;;5015861;28;20568;-88
2021/07/25 08:43:45;;;;;;;4.88;3.63;;;;;;;;;;4997498;28;20198;-85
2021/07/25 08:46:17;;;;;;;3.45;3.25;;;;;;;;;;5014836;28;20708;-87
2021/07/25 08:48:48;;;;;;;9.93;3.95;;;;;;;;;;4980658;28;20295;-84
2021/07/25 08:51:19;;;;;;;4.07;3.80;;;;;;;;;;4992167;28;20811;-86
2021/07/25 08:53:50;;;;;;;4.47;3.45;;;;;;;;;;4977311;28;20268;-84
2021/07/25 08:56:17;;;;;;;4.00;3.60;;;;;;;;;;4977626;28;20724;-83
2021/07/25 08:58:44;;;;;;;11.60;7.88;;;;;;;;;;4977084;28;20252;-84
2021/07/25 09:01:14;;;;;;;5.68;3.67;;;;;;;;;;4994841;28;20213;-82
2021/07/25 09:03:42;;;;;;;13.52;5.95;;;;;;;;;;4994814;28;20697;-84
2021/07/25 09:06:09;;;;;;;3.58;3.28;;;;;;;;;;4977220;28;20206;-84
2021/07/25 09:08:37;;;;;;;3.97;3.58;;;;;;;;;;4993137;28;20198;-81
2021/07/25 09:11:07;;;;;;;3.83;3.53;;;;;;;;;;4994588;28;20678;-83
2021/07/25 09:13:33;;;;;;;6.50;3.47;;;;;;;;;;4976584;28;20237;-82
2021/07/25 09:16:00;;;;;;;3.83;3.53;;;;;;;;;;4976331;28;20268;-84
2021/07/25 09:18:27;;;;;;;4.38;3.60;;;;;;;;;;4994426;28;20641;-82
2021/07/25 09:20:55;;;;;;;4.82;3.80;;;;;;;;;;4976627;28;20240;-83
2021/07/25 09:23:22;;;;;;;3.38;3.17;;;;;;;;;;4994312;28;20941;-83
2021/07/25 09:25:49;;;;;;;3.83;3.50;;;;;;;;;;4994254;28;20252;-83
2021/07/25 09:28:18;;;;;;;3.83;3.50;;;;;;;;;;4994414;28;20244;-83
2021/07/25 09:30:44;;;;;;;3.70;3.50;;;;;;;;;;4993093;28;20252;-82
2021/07/25 09:33:21;;;;;;;5.13;3.80;;;;;;;;;;4977213;28;20268;-85
2021/07/25 09:35:48;;;;;;;4.00;3.70;;;;;;;;;;4994632;28;20209;-87
2021/07/25 09:38:17;;;;;;;3.75;3.47;;;;;;;;;;4977052;28;20245;-83
2021/07/25 09:40:44;;;;;;;4.13;3.47;;;;;;;;;;4994761;28;20187;-87
2021/07/25 09:43:12;;;;;;;4.22;3.65;;;;;;;;;;4977615;28;20206;-80
2021/07/25 09:46:01;;;;;;;4.90;3.45;;;;;;;;;;4992759;28;20248;-84
2021/07/25 09:48:29;;;;;;;4.00;3.70;;;;;;;;;;4973831;28;20225;-85
2021/07/25 09:50:57;;;;;;;3.60;3.30;;;;;;;;;;4994497;28;20725;-85
2021/07/25 09:53:25;;;;;;;3.58;3.28;;;;;;;;;;4976990;28;20232;-87
2021/07/25 09:55:53;;;;;;;3.67;3.38;;;;;;;;;;4976811;28;20205;-84
2021/07/25 09:58:33;;;;;;;3.60;3.40;;;;;;;;;;4976915;28;20736;-82
2021/07/25 10:00:59;;;;;;;3.83;3.35;;;;;;;;;;4994341;28;20186;-85
2021/07/25 10:03:32;;;;;;;3.30;3.10;;;;;;;;;;4976227;28;20209;-80
2021/07/25 10:05:59;;;;;;;3.85;3.60;;;;;;;;;;4994318;28;20206;-83
2021/07/25 10:08:27;;;;;;;3.33;2.85;;;;;;;;;;4976322;28;20213;-81
2021/07/25 10:10:54;;;;;;;4.28;3.05;;;;;;;;;;4994118;28;20189;-84
2021/07/25 10:13:23;;;;;;;3.20;2.90;;;;;;;;;;4976016;28;20704;-84
2021/07/25 10:15:53;;;;;;;4.60;2.90;;;;;;;;;;4993534;28;20221;-84
2021/07/25 10:18:20;;;;;;;4.93;3.17;;;;;;;;;;4992572;28;20304;-82
2021/07/25 10:20:48;;;;;;;3.40;3.10;;;;;;;;;;4993504;28;20213;-81
2021/07/25 10:23:15;;;;;;;3.47;2.88;;;;;;;;;;4993844;28;20237;-82
2021/07/25 10:25:48;;;;;;;2.90;2.70;;;;;;;;;;4975894;28;20201;-83
2021/07/25 10:28:18;;;;;;;3.30;3.00;;;;;;;;;;4976447;28;20206;-83
2021/07/25 10:30:45;;;;;;;5.07;2.58;;;;;;;;;;4993466;28;20241;-83
2021/07/25 10:33:14;;;;;;;3.20;2.85;;;;;;;;;;4976062;28;20229;-83
2021/07/25 10:35:41;;;;;;;3.22;2.92;;;;;;;;;;4973906;28;20202;-85
2021/07/25 10:38:08;;;;;;;6.25;2.80;;;;;;;;;;4956459;28;20242;-84
2021/07/25 10:40:35;;;;;;;3.03;2.70;;;;;;;;;;4974171;28;20206;-85
2021/07/25 10:43:06;;;;;;;2.83;2.60;;;;;;;;;;4940537;28;20241;-84
2021/07/25 10:45:34;;;;;;;2.72;2.53;;;;;;;;;;4973740;28;20227;-83
2021/07/25 10:48:12;;;;;;;3.13;2.90;;;;;;;;;;4956037;28;20264;-84
2021/07/25 10:50:38;;;;;;;3.20;2.90;;;;;;;;;;4971451;28;20246;-87
2021/07/25 10:53:05;;;;;;;3.00;2.70;;;;;;;;;;4973986;28;20245;-82
2021/07/25 10:55:45;;;;;;;2.97;2.78;;;;;;;;;;4972222;28;20211;-85
2021/07/25 10:58:13;;;;;;;3.22;2.90;;;;;;;;;;4973493;28;20246;-88
2021/07/25 11:00:41;;;;;;;2.88;2.50;;;;;;;;;;4956124;28;20202;-86
2021/07/25 11:03:07;;;;;;;3.00;2.60;;;;;;;;;;4956024;28;20241;-86
2021/07/25 11:05:34;;;;;;;2.88;2.55;;;;;;;;;;4973587;28;20249;-86
2021/07/25 11:08:01;;;;;;;3.15;2.60;;;;;;;;;;4955849;28;20288;-86
2021/07/25 11:10:32;;;;;;;2.70;2.50;;;;;;;;;;4956182;28;20609;-87
2021/07/25 11:13:17;;;;;;;2.70;2.50;;;;;;;;;;4973910;28;20237;-86
2021/07/25 11:15:45;;;;;;;2.58;2.47;;;;;;;;;;4960590;28;20206;-87
2021/07/25 11:18:12;;;;;;;2.75;2.55;;;;;;;;;;4976426;28;20190;-88
2021/07/25 11:20:44;;;;;;;3.67;2.60;;;;;;;;;;4977768;28;20269;-89
2021/07/25 11:23:12;;;;;;;2.20;2.10;;;;;;;;;;4960000;28;20201;-88
2021/07/25 11:25:39;;;;;;;2.58;2.40;;;;;;;;;;4977591;28;20220;-88
2021/07/25 11:28:07;;;;;;;4.43;2.55;;;;;;;;;;4959734;28;20281;-88
2021/07/25 11:30:53;;;;;;;3.40;2.75;;;;;;;;;;4960454;28;20207;-86
2021/07/25 11:33:38;;;;;;;2.50;2.30;;;;;;;;;;4976683;28;20213;-87
2021/07/25 11:36:07;;;;;;;2.20;2.10;;;;;;;;;;4975121;28;20206;-85
2021/07/25 11:38:34;;;;;;;2.17;2.08;;;;;;;;;;4976079;28;20264;-86
2021/07/25 11:41:01;;;;;;;2.47;2.38;;;;;;;;;;4976494;28;20210;-87
2021/07/25 11:43:45;;;;;;;2.60;2.40;;;;;;;;;;4976995;28;20577;-87
2021/07/25 11:46:22;;;;;;;2.97;2.60;;;;;;;;;;4975328;28;20218;-85
2021/07/25 11:48:48;;;;;;;2.45;2.35;;;;;;;;;;4972525;28;20237;-88
2021/07/25 11:51:23;;;;;;;2.85;2.58;;;;;;;;;;4975783;28;20274;-87
2021/07/25 11:53:49;;;;;;;4.38;2.50;;;;;;;;;;4975427;28;20773;-85
2021/07/25 11:56:16;;;;;;;3.00;2.38;;;;;;;;;;4976254;28;20209;-85
2021/07/25 11:58:58;;;;;;;2.35;2.15;;;;;;;;;;4975409;28;20205;-85
2021/07/25 12:01:24;;;;;;;2.92;2.38;;;;;;;;;;4974445;28;20269;-86
2021/07/25 12:03:51;;;;;;;2.67;2.45;;;;;;;;;;4958431;28;20280;-85
2021/07/25 12:06:18;;;;;;;2.60;2.40;;;;;;;;;;4958039;28;20206;-86
2021/07/25 12:08:59;;;;;;;2.78;2.58;;;;;;;;;;4975222;28;20206;-85
2021/07/25 12:11:27;;;;;;;2.50;2.40;;;;;;;;;;4975215;28;20589;-86
2021/07/25 12:13:54;;;;;;;3.30;2.42;;;;;;;;;;4975580;28;20214;-85
2021/07/25 12:16:21;;;;;;;2.25;2.15;;;;;;;;;;4975462;28;20214;-85
2021/07/25 12:18:47;;;;;;;2.47;2.38;;;;;;;;;;4958049;28;21000;-83
2021/07/25 12:21:31;;;;;;;4.47;2.53;;;;;;;;;;4975522;28;20234;-85
2021/07/25 12:23:58;;;;;;;3.05;2.30;;;;;;;;;;4975130;28;20689;-84
2021/07/25 12:26:42;;;;;;;4.13;2.10;;;;;;;;;;4974849;28;20242;-85
2021/07/25 12:29:27;;;;;;;3.58;2.22;;;;;;;;;;4975207;28;20245;-86
2021/07/25 12:31:54;;;;;;;2.75;2.55;;;;;;;;;;4975118;28;20238;-85
2021/07/25 12:34:22;;;;;;;2.30;2.10;;;;;;;;;;4974440;28;20253;-86
2021/07/25 12:36:49;;;;;;;2.30;2.20;;;;;;;;;;4974478;28;20250;-85
2021/07/25 12:39:19;;;;;;;2.78;2.30;;;;;;;;;;4974677;28;20265;-86
2021/07/25 12:41:47;;;;;;;2.53;2.33;;;;;;;;;;4973762;28;20365;-85
2021/07/25 12:44:25;;;;;;;3.40;2.30;;;;;;;;;;4957092;28;20230;-85
2021/07/25 12:46:51;;;;;;;2.45;2.10;;;;;;;;;;4978510;28;20222;-85
2021/07/25 12:49:18;;;;;;;2.78;2.20;;;;;;;;;;4977310;28;20638;-85
2021/07/25 12:51:45;;;;;;;2.15;2.05;;;;;;;;;;4976617;28;20245;-86
2021/07/25 12:54:12;;;;;;;2.25;2.05;;;;;;;;;;4976264;28;20268;-86
2021/07/25 12:56:39;;;;;;;2.20;2.00;;;;;;;;;;4993482;28;20703;-84
2021/07/25 12:59:09;;;;;;;2.85;2.15;;;;;;;;;;4993833;28;20849;-83
2021/07/25 13:04:24;;;;;;;2.47;2.25;;;;;;;;;;4993261;28;20209;-84
2021/07/25 13:06:51;;;;;;;1.98;1.88;;;;;;;;;;4993882;28;20236;-85
2021/07/25 13:09:18;;;;;;;2.35;2.17;;;;;;;;;;4977115;28;20197;-87
2021/07/25 13:11:45;;;;;;;2.47;1.98;;;;;;;;;;4976925;28;20248;-87
2021/07/25 13:14:14;;;;;;;4.65;2.20;;;;;;;;;;4994714;28;20252;-85
2021/07/25 13:16:42;;;;;;;4.13;2.20;;;;;;;;;;4993749;28;20276;-86
2021/07/25 13:19:08;;;;;;;3.42;2.00;;;;;;;;;;4994304;28;20245;-89
2021/07/25 13:21:35;;;;;;;1.95;1.75;;;;;;;;;;4976835;28;20252;-85
2021/07/25 13:24:02;;;;;;;2.25;1.90;;;;;;;;;;4976504;28;20193;-83
2021/07/25 13:26:29;;;;;;;2.15;2.05;;;;;;;;;;4993668;28;20256;-83
2021/07/25 13:28:56;;;;;;;1.95;1.85;;;;;;;;;;4993949;28;20237;-85
2021/07/25 13:31:24;;;;;;;2.67;1.80;;;;;;;;;;4993911;28;20230;-84
2021/07/25 13:33:51;;;;;;;2.35;2.15;;;;;;;;;;4993639;28;20237;-84
2021/07/25 13:36:18;;;;;;;4.55;2.10;;;;;;;;;;4993777;28;20213;-85
2021/07/25 13:38:45;;;;;;;2.20;2.00;;;;;;;;;;4993315;28;20213;-86
2021/07/25 13:41:12;;;;;;;2.10;2.00;;;;;;;;;;4975842;28;20253;-85
2021/07/25 13:43:40;;;;;;;3.70;2.13;;;;;;;;;;4977244;28;20198;-84
2021/07/25 13:46:08;;;;;;;2.67;2.05;;;;;;;;;;4975817;28;20232;-86
2021/07/25 13:48:36;;;;;;;2.20;2.10;;;;;;;;;;4994799;28;20240;-85
2021/07/25 13:51:04;;;;;;;2.67;2.03;;;;;;;;;;4975832;28;20221;-85
2021/07/25 13:53:31;;;;;;;4.80;2.20;;;;;;;;;;4993584;28;20197;-84
2021/07/25 13:55:58;;;;;;;2.78;2.10;;;;;;;;;;4976271;28;20213;-85
2021/07/25 13:58:24;;;;;;;1.90;1.80;;;;;;;;;;4994185;28;20217;-84
2021/07/25 14:00:51;;;;;;;3.17;2.20;;;;;;;;;;4994276;28;20206;-82
2021/07/25 14:03:18;;;;;;;2.03;1.92;;;;;;;;;;4975653;28;20312;-84
2021/07/25 14:05:46;;;;;;;1.90;1.70;;;;;;;;;;4993295;28;20248;-84
2021/07/25 14:08:13;;;;;;;2.28;2.08;;;;;;;;;;4993078;28;20218;-84
2021/07/25 14:10:40;;;;;;;2.10;2.00;;;;;;;;;;4975163;28;20577;-84
2021/07/25 14:13:07;;;;;;;2.15;2.00;;;;;;;;;;4976186;28;20205;-84
2021/07/25 14:15:35;;;;;;;2.30;2.10;;;;;;;;;;4993048;28;20220;-85
2021/07/25 14:18:03;;;;;;;3.00;2.10;;;;;;;;;;5013354;28;20216;-86
2021/07/25 14:20:30;;;;;;;2.67;2.00;;;;;;;;;;4981433;28;20237;-83
2021/07/25 14:22:58;;;;;;;2.90;2.17;;;;;;;;;;4993142;28;20783;-85
2021/07/25 14:25:25;;;;;;;3.17;2.50;;;;;;;;;;4996302;28;20225;-85
2021/07/25 14:27:53;;;;;;;3.05;2.08;;;;;;;;;;4980349;28;20237;-85
2021/07/25 14:30:20;;;;;;;2.20;2.10;;;;;;;;;;5001702;28;20673;-84
2021/07/25 14:32:47;;;;;;;3.10;2.30;;;;;;;;;;4982467;28;20276;-84
2021/07/25 14:35:14;;;;;;;2.50;2.33;;;;;;;;;;4985646;28;20858;-84
2021/07/25 14:37:40;;;;;;;2.72;2.55;;;;;;;;;;4993444;28;20226;-84
2021/07/25 14:40:09;;;;;;;3.25;2.67;;;;;;;;;;4982196;28;20237;-86
2021/07/25 14:42:36;;;;;;;2.35;2.25;;;;;;;;;;4985860;28;20197;-85
2021/07/25 14:45:04;;;;;;;2.42;2.22;;;;;;;;;;4992290;28;20225;-86
2021/07/25 14:47:30;;;;;;;6.25;2.40;;;;;;;;;;4974536;28;20238;-84
2021/07/25 14:49:57;;;;;;;2.97;2.60;;;;;;;;;;4996174;28;20788;-85
2021/07/25 14:52:23;;;;;;;2.30;2.20;;;;;;;;;;4996525;28;20237;-84